sensor_id;sensor_type;location;lat;lon;timestamp;temperature;humidity
3942;DHT22;1985;48.592;8.850;2023-05-29T00:00:43;16.90;79.60
3942;DHT22;1985;48.592;8.850;2023-05-29T00:03:09;16.90;79.70
3942;DHT22;1985;48.592;8.850;2023-05-29T00:05:35;16.90;78.70
3942;DHT22;1985;48.592;8.850;2023-05-29T00:08:01;16.90;77.40
3942;DHT22;1985;48.592;8.850;2023-05-29T00:10:27;16.90;79.00
3942;DHT22;1985;48.592;8.850;2023-05-29T00:12:52;16.80;77.20
3942;DHT22;1985;48.592;8.850;2023-05-29T00:15:18;16.70;76.80
3942;DHT22;1985;48.592;8.850;2023-05-29T00:17:44;16.70;79.40
3942;DHT22;1985;48.592;8.850;2023-05-29T00:20:10;16.60;78.80
3942;DHT22;1985;48.592;8.850;2023-05-29T00:22:37;16.70;78.00
3942;DHT22;1985;48.592;8.850;2023-05-29T00:25:06;16.70;76.70
3942;DHT22;1985;48.592;8.850;2023-05-29T00:27:33;16.80;76.30
3942;DHT22;1985;48.592;8.850;2023-05-29T00:30:00;16.80;76.10
3942;DHT22;1985;48.592;8.850;2023-05-29T00:32:26;16.90;75.90
3942;DHT22;1985;48.592;8.850;2023-05-29T00:34:53;16.80;75.30
3942;DHT22;1985;48.592;8.850;2023-05-29T00:37:18;16.80;76.30
3942;DHT22;1985;48.592;8.850;2023-05-29T00:39:47;16.60;77.80
3942;DHT22;1985;48.592;8.850;2023-05-29T00:42:13;16.50;77.80
3942;DHT22;1985;48.592;8.850;2023-05-29T00:44:38;16.50;75.80
3942;DHT22;1985;48.592;8.850;2023-05-29T00:47:04;16.50;78.80
3942;DHT22;1985;48.592;8.850;2023-05-29T00:49:30;16.50;76.40
3942;DHT22;1985;48.592;8.850;2023-05-29T00:51:56;16.40;78.50
3942;DHT22;1985;48.592;8.850;2023-05-29T00:54:26;16.30;78.50
3942;DHT22;1985;48.592;8.850;2023-05-29T00:56:52;16.20;77.30
3942;DHT22;1985;48.592;8.850;2023-05-29T00:59:19;16.20;78.00
3942;DHT22;1985;48.592;8.850;2023-05-29T01:01:48;16.10;75.80
3942;DHT22;1985;48.592;8.850;2023-05-29T01:04:15;16.00;78.50
3942;DHT22;1985;48.592;8.850;2023-05-29T01:06:42;15.80;75.70
3942;DHT22;1985;48.592;8.850;2023-05-29T01:09:07;15.60;76.90
3942;DHT22;1985;48.592;8.850;2023-05-29T01:14:09;15.30;78.50
3942;DHT22;1985;48.592;8.850;2023-05-29T01:17:19;15.40;77.90
3942;DHT22;1985;48.592;8.850;2023-05-29T01:20:02;15.30;78.30
3942;DHT22;1985;48.592;8.850;2023-05-29T01:26:03;15.20;79.90
3942;DHT22;1985;48.592;8.850;2023-05-29T01:28:37;15.20;80.70
3942;DHT22;1985;48.592;8.850;2023-05-29T01:31:07;15.20;81.80
3942;DHT22;1985;48.592;8.850;2023-05-29T01:33:33;15.20;81.40
3942;DHT22;1985;48.592;8.850;2023-05-29T01:35:59;15.20;84.90
3942;DHT22;1985;48.592;8.850;2023-05-29T01:38:24;15.20;83.40
3942;DHT22;1985;48.592;8.850;2023-05-29T01:40:50;15.20;81.80
3942;DHT22;1985;48.592;8.850;2023-05-29T01:43:16;15.20;81.30
3942;DHT22;1985;48.592;8.850;2023-05-29T01:45:42;15.20;83.20
3942;DHT22;1985;48.592;8.850;2023-05-29T01:48:08;15.20;84.40
3942;DHT22;1985;48.592;8.850;2023-05-29T01:50:34;15.20;85.90
3942;DHT22;1985;48.592;8.850;2023-05-29T01:53:00;15.20;82.90
3942;DHT22;1985;48.592;8.850;2023-05-29T01:55:26;15.40;79.80
3942;DHT22;1985;48.592;8.850;2023-05-29T01:57:52;15.30;79.40
3942;DHT22;1985;48.592;8.850;2023-05-29T02:00:19;15.40;79.00
3942;DHT22;1985;48.592;8.850;2023-05-29T02:02:44;15.30;80.90
3942;DHT22;1985;48.592;8.850;2023-05-29T02:05:10;15.20;83.90
3942;DHT22;1985;48.592;8.850;2023-05-29T02:07:36;15.30;83.60
3942;DHT22;1985;48.592;8.850;2023-05-29T02:10:05;15.20;84.30
3942;DHT22;1985;48.592;8.850;2023-05-29T02:12:31;15.30;83.60
3942;DHT22;1985;48.592;8.850;2023-05-29T02:14:56;15.30;84.90
3942;DHT22;1985;48.592;8.850;2023-05-29T02:17:22;15.30;84.40
3942;DHT22;1985;48.592;8.850;2023-05-29T02:19:48;15.30;84.50
3942;DHT22;1985;48.592;8.850;2023-05-29T02:22:14;15.40;84.70
3942;DHT22;1985;48.592;8.850;2023-05-29T02:24:39;15.50;84.20
3942;DHT22;1985;48.592;8.850;2023-05-29T02:27:05;15.40;84.90
3942;DHT22;1985;48.592;8.850;2023-05-29T02:29:32;15.40;84.60
3942;DHT22;1985;48.592;8.850;2023-05-29T02:31:57;15.40;84.60
3942;DHT22;1985;48.592;8.850;2023-05-29T02:34:23;15.30;83.70
3942;DHT22;1985;48.592;8.850;2023-05-29T02:36:50;15.30;83.10
3942;DHT22;1985;48.592;8.850;2023-05-29T02:39:17;15.30;83.70
3942;DHT22;1985;48.592;8.850;2023-05-29T02:41:43;15.30;83.40
3942;DHT22;1985;48.592;8.850;2023-05-29T02:44:08;15.30;83.20
3942;DHT22;1985;48.592;8.850;2023-05-29T02:46:34;15.20;83.80
3942;DHT22;1985;48.592;8.850;2023-05-29T02:49:00;15.20;82.40
3942;DHT22;1985;48.592;8.850;2023-05-29T02:51:26;15.20;80.90
3942;DHT22;1985;48.592;8.850;2023-05-29T02:53:52;15.20;80.80
3942;DHT22;1985;48.592;8.850;2023-05-29T02:56:18;15.10;82.70
3942;DHT22;1985;48.592;8.850;2023-05-29T02:58:44;15.10;83.20
3942;DHT22;1985;48.592;8.850;2023-05-29T03:01:10;15.10;82.60
3942;DHT22;1985;48.592;8.850;2023-05-29T03:03:36;15.10;83.20
3942;DHT22;1985;48.592;8.850;2023-05-29T03:06:01;15.00;83.50
3942;DHT22;1985;48.592;8.850;2023-05-29T03:08:27;15.00;82.40
3942;DHT22;1985;48.592;8.850;2023-05-29T03:10:54;14.90;83.30
3942;DHT22;1985;48.592;8.850;2023-05-29T03:13:19;14.90;83.00
3942;DHT22;1985;48.592;8.850;2023-05-29T03:15:45;15.10;82.90
3942;DHT22;1985;48.592;8.850;2023-05-29T03:18:11;15.10;82.60
3942;DHT22;1985;48.592;8.850;2023-05-29T03:20:36;15.20;81.90
3942;DHT22;1985;48.592;8.850;2023-05-29T03:23:02;15.20;81.30
3942;DHT22;1985;48.592;8.850;2023-05-29T03:25:28;15.20;81.00
3942;DHT22;1985;48.592;8.850;2023-05-29T03:27:54;15.20;81.00
3942;DHT22;1985;48.592;8.850;2023-05-29T03:30:21;15.20;80.70
3942;DHT22;1985;48.592;8.850;2023-05-29T03:32:46;15.20;80.40
3942;DHT22;1985;48.592;8.850;2023-05-29T03:35:12;15.20;80.70
3942;DHT22;1985;48.592;8.850;2023-05-29T03:37:38;15.20;80.70
3942;DHT22;1985;48.592;8.850;2023-05-29T03:40:04;15.20;80.50
3942;DHT22;1985;48.592;8.850;2023-05-29T03:42:30;15.30;80.20
3942;DHT22;1985;48.592;8.850;2023-05-29T03:44:56;15.20;80.10
3942;DHT22;1985;48.592;8.850;2023-05-29T03:47:22;15.20;80.00
3942;DHT22;1985;48.592;8.850;2023-05-29T03:49:48;15.20;79.80
3942;DHT22;1985;48.592;8.850;2023-05-29T03:52:13;15.20;80.10
3942;DHT22;1985;48.592;8.850;2023-05-29T03:54:39;15.10;80.30
3942;DHT22;1985;48.592;8.850;2023-05-29T03:57:05;15.10;80.80
3942;DHT22;1985;48.592;8.850;2023-05-29T03:59:32;15.10;80.40
3942;DHT22;1985;48.592;8.850;2023-05-29T04:01:58;15.10;80.40
3942;DHT22;1985;48.592;8.850;2023-05-29T04:04:23;15.20;80.70
3942;DHT22;1985;48.592;8.850;2023-05-29T04:06:49;15.20;80.80
3942;DHT22;1985;48.592;8.850;2023-05-29T04:09:14;15.30;80.60
3942;DHT22;1985;48.592;8.850;2023-05-29T04:11:40;15.30;80.70
3942;DHT22;1985;48.592;8.850;2023-05-29T04:14:07;15.30;80.20
3942;DHT22;1985;48.592;8.850;2023-05-29T04:16:32;15.30;81.10
3942;DHT22;1985;48.592;8.850;2023-05-29T04:18:58;15.20;82.20
3942;DHT22;1985;48.592;8.850;2023-05-29T04:21:24;15.20;83.00
3942;DHT22;1985;48.592;8.850;2023-05-29T04:23:49;15.20;82.40
3942;DHT22;1985;48.592;8.850;2023-05-29T04:26:15;15.20;82.20
3942;DHT22;1985;48.592;8.850;2023-05-29T04:28:40;15.20;81.60
3942;DHT22;1985;48.592;8.850;2023-05-29T04:31:07;15.20;83.20
3942;DHT22;1985;48.592;8.850;2023-05-29T04:33:33;15.20;82.80
3942;DHT22;1985;48.592;8.850;2023-05-29T04:36:02;15.30;81.80
3942;DHT22;1985;48.592;8.850;2023-05-29T04:38:29;15.30;82.10
3942;DHT22;1985;48.592;8.850;2023-05-29T04:40:55;15.30;84.10
3942;DHT22;1985;48.592;8.850;2023-05-29T04:43:24;15.20;82.80
3942;DHT22;1985;48.592;8.850;2023-05-29T04:45:52;15.20;81.50
3942;DHT22;1985;48.592;8.850;2023-05-29T04:48:18;15.10;81.80
3942;DHT22;1985;48.592;8.850;2023-05-29T04:50:44;15.10;83.70
3942;DHT22;1985;48.592;8.850;2023-05-29T04:53:11;15.00;82.80
3942;DHT22;1985;48.592;8.850;2023-05-29T04:55:36;14.90;83.40
3942;DHT22;1985;48.592;8.850;2023-05-29T04:58:02;14.80;84.40
3942;DHT22;1985;48.592;8.850;2023-05-29T05:00:28;14.80;84.80
3942;DHT22;1985;48.592;8.850;2023-05-29T05:02:53;14.90;85.10
3942;DHT22;1985;48.592;8.850;2023-05-29T05:05:19;14.90;86.40
3942;DHT22;1985;48.592;8.850;2023-05-29T05:07:45;14.90;88.20
3942;DHT22;1985;48.592;8.850;2023-05-29T05:10:11;15.00;89.00
3942;DHT22;1985;48.592;8.850;2023-05-29T05:12:37;15.20;88.40
3942;DHT22;1985;48.592;8.850;2023-05-29T05:15:03;15.40;88.10
3942;DHT22;1985;48.592;8.850;2023-05-29T05:17:29;15.60;87.40
3942;DHT22;1985;48.592;8.850;2023-05-29T05:19:55;15.70;86.20
3942;DHT22;1985;48.592;8.850;2023-05-29T05:22:21;15.90;85.40
3942;DHT22;1985;48.592;8.850;2023-05-29T05:24:46;16.10;85.40
3942;DHT22;1985;48.592;8.850;2023-05-29T05:27:12;16.20;85.60
3942;DHT22;1985;48.592;8.850;2023-05-29T05:29:38;16.40;85.50
3942;DHT22;1985;48.592;8.850;2023-05-29T05:32:04;16.50;84.90
3942;DHT22;1985;48.592;8.850;2023-05-29T05:34:29;16.60;84.50
3942;DHT22;1985;48.592;8.850;2023-05-29T05:36:55;16.70;84.00
3942;DHT22;1985;48.592;8.850;2023-05-29T05:39:21;16.70;83.30
3942;DHT22;1985;48.592;8.850;2023-05-29T05:41:46;16.80;83.40
3942;DHT22;1985;48.592;8.850;2023-05-29T05:44:12;16.90;83.50
3942;DHT22;1985;48.592;8.850;2023-05-29T05:46:37;16.90;83.40
3942;DHT22;1985;48.592;8.850;2023-05-29T05:49:03;17.00;83.50
3942;DHT22;1985;48.592;8.850;2023-05-29T05:51:29;17.10;83.60
3942;DHT22;1985;48.592;8.850;2023-05-29T05:53:54;17.20;83.60
3942;DHT22;1985;48.592;8.850;2023-05-29T05:56:20;17.30;83.10
3942;DHT22;1985;48.592;8.850;2023-05-29T05:58:46;17.30;82.90
3942;DHT22;1985;48.592;8.850;2023-05-29T06:01:11;17.40;83.50
3942;DHT22;1985;48.592;8.850;2023-05-29T06:03:37;17.50;82.80
3942;DHT22;1985;48.592;8.850;2023-05-29T06:06:03;17.60;82.90
3942;DHT22;1985;48.592;8.850;2023-05-29T06:08:29;17.60;82.90
3942;DHT22;1985;48.592;8.850;2023-05-29T06:10:55;17.70;82.90
3942;DHT22;1985;48.592;8.850;2023-05-29T06:13:20;17.70;82.70
3942;DHT22;1985;48.592;8.850;2023-05-29T06:15:46;17.80;82.50
3942;DHT22;1985;48.592;8.850;2023-05-29T06:18:12;17.90;82.50
3942;DHT22;1985;48.592;8.850;2023-05-29T06:20:38;17.90;82.60
3942;DHT22;1985;48.592;8.850;2023-05-29T06:23:03;18.00;83.00
3942;DHT22;1985;48.592;8.850;2023-05-29T06:25:30;18.00;82.80
3942;DHT22;1985;48.592;8.850;2023-05-29T06:28:02;18.10;82.30
3942;DHT22;1985;48.592;8.850;2023-05-29T06:30:28;18.20;81.50
3942;DHT22;1985;48.592;8.850;2023-05-29T06:32:53;18.20;80.60
3942;DHT22;1985;48.592;8.850;2023-05-29T06:35:19;18.40;79.60
3942;DHT22;1985;48.592;8.850;2023-05-29T06:37:45;18.50;78.30
3942;DHT22;1985;48.592;8.850;2023-05-29T06:40:12;18.50;77.80
3942;DHT22;1985;48.592;8.850;2023-05-29T06:42:38;18.50;76.80
3942;DHT22;1985;48.592;8.850;2023-05-29T06:45:04;18.60;76.10
3942;DHT22;1985;48.592;8.850;2023-05-29T06:47:29;18.60;75.40
3942;DHT22;1985;48.592;8.850;2023-05-29T06:49:55;18.70;75.90
3942;DHT22;1985;48.592;8.850;2023-05-29T06:52:21;18.70;76.00
3942;DHT22;1985;48.592;8.850;2023-05-29T06:54:46;18.80;75.70
3942;DHT22;1985;48.592;8.850;2023-05-29T06:57:12;18.80;76.10
3942;DHT22;1985;48.592;8.850;2023-05-29T06:59:38;18.90;76.40
3942;DHT22;1985;48.592;8.850;2023-05-29T07:02:04;18.90;75.40
3942;DHT22;1985;48.592;8.850;2023-05-29T07:04:29;18.90;75.60
3942;DHT22;1985;48.592;8.850;2023-05-29T07:06:55;18.90;74.80
3942;DHT22;1985;48.592;8.850;2023-05-29T07:09:21;19.00;74.10
3942;DHT22;1985;48.592;8.850;2023-05-29T07:11:46;19.00;74.50
3942;DHT22;1985;48.592;8.850;2023-05-29T07:14:12;19.00;74.50
3942;DHT22;1985;48.592;8.850;2023-05-29T07:16:38;19.00;74.50
3942;DHT22;1985;48.592;8.850;2023-05-29T07:19:04;19.00;74.90
3942;DHT22;1985;48.592;8.850;2023-05-29T07:21:29;19.00;74.90
3942;DHT22;1985;48.592;8.850;2023-05-29T07:23:56;19.10;74.40
3942;DHT22;1985;48.592;8.850;2023-05-29T07:26:22;19.10;74.90
3942;DHT22;1985;48.592;8.850;2023-05-29T07:28:48;19.20;75.00
3942;DHT22;1985;48.592;8.850;2023-05-29T07:31:14;19.10;73.60
3942;DHT22;1985;48.592;8.850;2023-05-29T07:33:40;19.20;74.50
3942;DHT22;1985;48.592;8.850;2023-05-29T07:36:06;19.30;75.20
3942;DHT22;1985;48.592;8.850;2023-05-29T07:38:33;19.30;74.20
3942;DHT22;1985;48.592;8.850;2023-05-29T07:40:58;19.50;75.10
3942;DHT22;1985;48.592;8.850;2023-05-29T07:43:24;19.60;75.10
3942;DHT22;1985;48.592;8.850;2023-05-29T07:45:50;19.60;74.50
3942;DHT22;1985;48.592;8.850;2023-05-29T07:48:15;19.60;75.10
3942;DHT22;1985;48.592;8.850;2023-05-29T07:50:41;19.70;75.00
3942;DHT22;1985;48.592;8.850;2023-05-29T07:53:07;19.80;74.50
3942;DHT22;1985;48.592;8.850;2023-05-29T07:55:34;19.80;74.40
3942;DHT22;1985;48.592;8.850;2023-05-29T07:58:00;19.90;75.80
3942;DHT22;1985;48.592;8.850;2023-05-29T08:00:27;20.10;76.40
3942;DHT22;1985;48.592;8.850;2023-05-29T08:02:54;20.20;75.50
3942;DHT22;1985;48.592;8.850;2023-05-29T08:05:19;20.30;75.00
3942;DHT22;1985;48.592;8.850;2023-05-29T08:07:45;20.30;74.90
3942;DHT22;1985;48.592;8.850;2023-05-29T08:10:12;20.40;73.90
3942;DHT22;1985;48.592;8.850;2023-05-29T08:12:37;20.40;73.70
3942;DHT22;1985;48.592;8.850;2023-05-29T08:15:03;20.40;74.10
3942;DHT22;1985;48.592;8.850;2023-05-29T08:17:29;20.50;75.10
3942;DHT22;1985;48.592;8.850;2023-05-29T08:19:55;20.60;75.10
3942;DHT22;1985;48.592;8.850;2023-05-29T08:22:28;20.60;74.20
3942;DHT22;1985;48.592;8.850;2023-05-29T08:24:54;20.60;73.70
3942;DHT22;1985;48.592;8.850;2023-05-29T08:27:19;20.60;74.00
3942;DHT22;1985;48.592;8.850;2023-05-29T08:29:45;20.70;74.30
3942;DHT22;1985;48.592;8.850;2023-05-29T08:32:11;20.70;73.90
3942;DHT22;1985;48.592;8.850;2023-05-29T08:34:36;20.70;73.60
3942;DHT22;1985;48.592;8.850;2023-05-29T08:37:02;20.80;73.60
3942;DHT22;1985;48.592;8.850;2023-05-29T08:39:28;20.80;74.30
3942;DHT22;1985;48.592;8.850;2023-05-29T08:44:23;21.00;72.50
3942;DHT22;1985;48.592;8.850;2023-05-29T08:46:55;21.20;71.80
3942;DHT22;1985;48.592;8.850;2023-05-29T08:49:22;21.30;72.00
3942;DHT22;1985;48.592;8.850;2023-05-29T08:51:49;21.30;72.10
3942;DHT22;1985;48.592;8.850;2023-05-29T08:54:21;21.40;71.40
3942;DHT22;1985;48.592;8.850;2023-05-29T08:56:47;21.50;70.80
3942;DHT22;1985;48.592;8.850;2023-05-29T08:59:13;21.70;70.90
3942;DHT22;1985;48.592;8.850;2023-05-29T09:01:40;21.60;69.30
3942;DHT22;1985;48.592;8.850;2023-05-29T09:04:05;21.60;70.20
3942;DHT22;1985;48.592;8.850;2023-05-29T09:06:31;21.80;71.20
3942;DHT22;1985;48.592;8.850;2023-05-29T09:08:57;21.90;70.40
3942;DHT22;1985;48.592;8.850;2023-05-29T09:11:23;22.00;69.80
3942;DHT22;1985;48.592;8.850;2023-05-29T09:13:49;22.20;70.00
3942;DHT22;1985;48.592;8.850;2023-05-29T09:16:16;22.30;68.40
3942;DHT22;1985;48.592;8.850;2023-05-29T09:18:42;22.30;65.90
3942;DHT22;1985;48.592;8.850;2023-05-29T09:21:25;22.30;65.50
3942;DHT22;1985;48.592;8.850;2023-05-29T09:23:53;22.40;65.40
3942;DHT22;1985;48.592;8.850;2023-05-29T09:26:21;22.50;66.50
3942;DHT22;1985;48.592;8.850;2023-05-29T09:28:48;22.60;62.90
3942;DHT22;1985;48.592;8.850;2023-05-29T09:31:15;22.70;60.80
3942;DHT22;1985;48.592;8.850;2023-05-29T09:33:49;22.70;61.30
3942;DHT22;1985;48.592;8.850;2023-05-29T09:36:24;22.80;60.40
3942;DHT22;1985;48.592;8.850;2023-05-29T09:38:50;22.90;60.00
3942;DHT22;1985;48.592;8.850;2023-05-29T09:41:23;22.90;57.90
3942;DHT22;1985;48.592;8.850;2023-05-29T09:43:52;23.10;59.50
3942;DHT22;1985;48.592;8.850;2023-05-29T09:46:20;23.20;60.30
3942;DHT22;1985;48.592;8.850;2023-05-29T09:48:46;23.20;60.00
3942;DHT22;1985;48.592;8.850;2023-05-29T09:51:23;23.30;60.00
3942;DHT22;1985;48.592;8.850;2023-05-29T09:53:50;23.40;60.00
3942;DHT22;1985;48.592;8.850;2023-05-29T09:56:23;23.70;59.30
3942;DHT22;1985;48.592;8.850;2023-05-29T09:58:50;23.60;57.50
3942;DHT22;1985;48.592;8.850;2023-05-29T10:01:17;23.40;56.80
3942;DHT22;1985;48.592;8.850;2023-05-29T10:03:43;23.20;57.80
3942;DHT22;1985;48.592;8.850;2023-05-29T10:06:11;23.30;60.20
3942;DHT22;1985;48.592;8.850;2023-05-29T10:08:45;23.60;58.00
3942;DHT22;1985;48.592;8.850;2023-05-29T10:11:17;23.70;57.40
3942;DHT22;1985;48.592;8.850;2023-05-29T10:13:50;24.10;56.90
3942;DHT22;1985;48.592;8.850;2023-05-29T10:16:20;24.60;55.80
3942;DHT22;1985;48.592;8.850;2023-05-29T10:18:52;24.80;55.00
3942;DHT22;1985;48.592;8.850;2023-05-29T10:21:21;25.10;54.60
3942;DHT22;1985;48.592;8.850;2023-05-29T10:23:50;25.40;54.60
3942;DHT22;1985;48.592;8.850;2023-05-29T10:26:22;25.40;54.50
3942;DHT22;1985;48.592;8.850;2023-05-29T10:29:05;26.00;53.90
3942;DHT22;1985;48.592;8.850;2023-05-29T10:37:07;26.30;54.80
3942;DHT22;1985;48.592;8.850;2023-05-29T10:39:35;26.40;54.00
3942;DHT22;1985;48.592;8.850;2023-05-29T10:42:00;26.50;53.30
3942;DHT22;1985;48.592;8.850;2023-05-29T10:49:24;26.90;53.10
3942;DHT22;1985;48.592;8.850;2023-05-29T10:51:51;27.10;52.60
3942;DHT22;1985;48.592;8.850;2023-05-29T10:54:21;27.00;52.60
3942;DHT22;1985;48.592;8.850;2023-05-29T10:57:01;27.10;51.50
3942;DHT22;1985;48.592;8.850;2023-05-29T10:59:27;27.00;52.80
3942;DHT22;1985;48.592;8.850;2023-05-29T11:01:54;27.10;53.40
3942;DHT22;1985;48.592;8.850;2023-05-29T11:06:46;27.40;53.60
3942;DHT22;1985;48.592;8.850;2023-05-29T11:09:31;27.60;53.60
3942;DHT22;1985;48.592;8.850;2023-05-29T11:12:16;27.80;53.60
3942;DHT22;1985;48.592;8.850;2023-05-29T11:15:06;27.90;52.80
3942;DHT22;1985;48.592;8.850;2023-05-29T11:20:06;28.10;51.40
3942;DHT22;1985;48.592;8.850;2023-05-29T11:23:03;28.20;50.40
3942;DHT22;1985;48.592;8.850;2023-05-29T11:25:34;28.00;51.10
3942;DHT22;1985;48.592;8.850;2023-05-29T11:27:59;28.00;52.50
3942;DHT22;1985;48.592;8.850;2023-05-29T11:30:26;27.70;51.60
3942;DHT22;1985;48.592;8.850;2023-05-29T11:32:52;27.80;52.00
3942;DHT22;1985;48.592;8.850;2023-05-29T11:35:21;27.90;49.10
3942;DHT22;1985;48.592;8.850;2023-05-29T11:37:47;27.70;49.90
3942;DHT22;1985;48.592;8.850;2023-05-29T11:40:15;27.50;49.40
3942;DHT22;1985;48.592;8.850;2023-05-29T11:42:45;27.50;48.90
3942;DHT22;1985;48.592;8.850;2023-05-29T11:45:15;27.80;49.30
3942;DHT22;1985;48.592;8.850;2023-05-29T11:47:55;27.60;48.80
3942;DHT22;1985;48.592;8.850;2023-05-29T11:50:22;27.70;50.00
3942;DHT22;1985;48.592;8.850;2023-05-29T11:52:48;27.50;49.90
3942;DHT22;1985;48.592;8.850;2023-05-29T11:55:13;27.60;50.30
3942;DHT22;1985;48.592;8.850;2023-05-29T11:57:39;27.50;51.30
3942;DHT22;1985;48.592;8.850;2023-05-29T12:00:06;27.50;50.50
3942;DHT22;1985;48.592;8.850;2023-05-29T12:02:32;27.30;50.20
3942;DHT22;1985;48.592;8.850;2023-05-29T12:05:05;27.40;51.70
3942;DHT22;1985;48.592;8.850;2023-05-29T12:07:32;27.40;50.90
3942;DHT22;1985;48.592;8.850;2023-05-29T12:10:11;27.30;51.00
3942;DHT22;1985;48.592;8.850;2023-05-29T12:12:37;27.20;50.60
3942;DHT22;1985;48.592;8.850;2023-05-29T12:15:05;27.20;49.80
3942;DHT22;1985;48.592;8.850;2023-05-29T12:17:32;27.10;49.50
3942;DHT22;1985;48.592;8.850;2023-05-29T12:19:58;26.60;50.00
3942;DHT22;1985;48.592;8.850;2023-05-29T12:22:36;26.40;50.70
3942;DHT22;1985;48.592;8.850;2023-05-29T12:25:16;26.50;49.80
3942;DHT22;1985;48.592;8.850;2023-05-29T12:27:44;26.60;49.60
3942;DHT22;1985;48.592;8.850;2023-05-29T12:30:20;26.50;50.10
3942;DHT22;1985;48.592;8.850;2023-05-29T12:32:51;26.50;50.10
3942;DHT22;1985;48.592;8.850;2023-05-29T12:35:27;26.60;49.80
3942;DHT22;1985;48.592;8.850;2023-05-29T12:38:01;26.50;49.90
3942;DHT22;1985;48.592;8.850;2023-05-29T12:40:32;26.60;49.40
3942;DHT22;1985;48.592;8.850;2023-05-29T12:43:11;26.60;49.50
3942;DHT22;1985;48.592;8.850;2023-05-29T12:45:37;26.70;48.00
3942;DHT22;1985;48.592;8.850;2023-05-29T12:48:04;26.70;48.70
3942;DHT22;1985;48.592;8.850;2023-05-29T12:50:34;26.80;47.80
3942;DHT22;1985;48.592;8.850;2023-05-29T12:53:12;26.90;48.30
3942;DHT22;1985;48.592;8.850;2023-05-29T12:55:41;26.60;47.50
3942;DHT22;1985;48.592;8.850;2023-05-29T12:58:09;26.40;47.30
3942;DHT22;1985;48.592;8.850;2023-05-29T13:00:39;26.40;47.30
3942;DHT22;1985;48.592;8.850;2023-05-29T13:03:06;26.50;48.10
3942;DHT22;1985;48.592;8.850;2023-05-29T13:05:32;26.40;48.20
3942;DHT22;1985;48.592;8.850;2023-05-29T13:07:58;26.30;47.80
3942;DHT22;1985;48.592;8.850;2023-05-29T13:10:25;26.30;47.00
3942;DHT22;1985;48.592;8.850;2023-05-29T13:12:52;26.10;46.60
3942;DHT22;1985;48.592;8.850;2023-05-29T13:15:24;26.00;46.70
3942;DHT22;1985;48.592;8.850;2023-05-29T13:17:51;26.00;46.60
3942;DHT22;1985;48.592;8.850;2023-05-29T13:20:17;26.00;47.40
3942;DHT22;1985;48.592;8.850;2023-05-29T13:22:45;26.20;47.90
3942;DHT22;1985;48.592;8.850;2023-05-29T13:25:12;26.20;46.20
3942;DHT22;1985;48.592;8.850;2023-05-29T13:27:45;25.90;46.00
3942;DHT22;1985;48.592;8.850;2023-05-29T13:30:12;25.80;46.00
3942;DHT22;1985;48.592;8.850;2023-05-29T13:32:38;25.60;47.10
3942;DHT22;1985;48.592;8.850;2023-05-29T13:35:04;25.40;46.80
3942;DHT22;1985;48.592;8.850;2023-05-29T13:37:30;25.50;46.50
3942;DHT22;1985;48.592;8.850;2023-05-29T13:39:56;25.60;45.80
3942;DHT22;1985;48.592;8.850;2023-05-29T13:42:22;25.80;45.70
3942;DHT22;1985;48.592;8.850;2023-05-29T13:44:48;25.70;46.30
3942;DHT22;1985;48.592;8.850;2023-05-29T13:47:14;25.60;45.90
3942;DHT22;1985;48.592;8.850;2023-05-29T13:49:40;25.70;46.30
3942;DHT22;1985;48.592;8.850;2023-05-29T13:52:05;25.80;46.00
3942;DHT22;1985;48.592;8.850;2023-05-29T13:54:31;25.90;45.50
3942;DHT22;1985;48.592;8.850;2023-05-29T13:57:04;26.00;45.20
3942;DHT22;1985;48.592;8.850;2023-05-29T13:59:34;26.00;45.80
3942;DHT22;1985;48.592;8.850;2023-05-29T14:02:00;25.80;46.20
3942;DHT22;1985;48.592;8.850;2023-05-29T14:04:26;25.80;45.00
3942;DHT22;1985;48.592;8.850;2023-05-29T14:06:52;25.90;45.30
3942;DHT22;1985;48.592;8.850;2023-05-29T14:09:18;26.00;44.80
3942;DHT22;1985;48.592;8.850;2023-05-29T14:11:52;25.70;44.90
3942;DHT22;1985;48.592;8.850;2023-05-29T14:14:18;25.60;44.80
3942;DHT22;1985;48.592;8.850;2023-05-29T14:16:43;25.60;44.40
3942;DHT22;1985;48.592;8.850;2023-05-29T14:19:09;25.50;43.90
3942;DHT22;1985;48.592;8.850;2023-05-29T14:21:34;25.60;44.50
3942;DHT22;1985;48.592;8.850;2023-05-29T14:24:01;25.60;45.20
3942;DHT22;1985;48.592;8.850;2023-05-29T14:26:27;25.50;44.50
3942;DHT22;1985;48.592;8.850;2023-05-29T14:28:52;25.50;45.00
3942;DHT22;1985;48.592;8.850;2023-05-29T14:31:18;25.70;43.50
3942;DHT22;1985;48.592;8.850;2023-05-29T14:33:43;25.70;43.90
3942;DHT22;1985;48.592;8.850;2023-05-29T14:36:09;25.70;43.60
3942;DHT22;1985;48.592;8.850;2023-05-29T14:38:35;25.80;43.10
3942;DHT22;1985;48.592;8.850;2023-05-29T14:41:02;25.70;42.10
3942;DHT22;1985;48.592;8.850;2023-05-29T14:43:27;25.50;43.40
3942;DHT22;1985;48.592;8.850;2023-05-29T14:45:53;25.40;43.80
3942;DHT22;1985;48.592;8.850;2023-05-29T14:48:19;25.50;44.00
3942;DHT22;1985;48.592;8.850;2023-05-29T14:50:44;25.10;44.40
3942;DHT22;1985;48.592;8.850;2023-05-29T14:53:10;25.10;44.10
3942;DHT22;1985;48.592;8.850;2023-05-29T14:55:35;25.00;44.00
3942;DHT22;1985;48.592;8.850;2023-05-29T14:58:03;25.00;44.30
3942;DHT22;1985;48.592;8.850;2023-05-29T15:00:29;25.00;45.00
3942;DHT22;1985;48.592;8.850;2023-05-29T15:02:55;25.00;45.30
3942;DHT22;1985;48.592;8.850;2023-05-29T15:05:22;25.10;44.80
3942;DHT22;1985;48.592;8.850;2023-05-29T15:07:48;25.00;43.30
3942;DHT22;1985;48.592;8.850;2023-05-29T15:10:13;25.00;43.60
3942;DHT22;1985;48.592;8.850;2023-05-29T15:12:39;25.10;42.60
3942;DHT22;1985;48.592;8.850;2023-05-29T15:15:05;25.10;44.00
3942;DHT22;1985;48.592;8.850;2023-05-29T15:17:31;25.10;44.10
3942;DHT22;1985;48.592;8.850;2023-05-29T15:19:56;25.10;44.20
3942;DHT22;1985;48.592;8.850;2023-05-29T15:22:22;24.90;44.50
3942;DHT22;1985;48.592;8.850;2023-05-29T15:24:47;24.90;43.50
3942;DHT22;1985;48.592;8.850;2023-05-29T15:27:13;24.90;44.10
3942;DHT22;1985;48.592;8.850;2023-05-29T15:29:42;25.00;43.80
3942;DHT22;1985;48.592;8.850;2023-05-29T15:32:08;25.00;43.80
3942;DHT22;1985;48.592;8.850;2023-05-29T15:34:34;24.90;44.10
3942;DHT22;1985;48.592;8.850;2023-05-29T15:37:00;24.90;44.20
3942;DHT22;1985;48.592;8.850;2023-05-29T15:39:25;25.00;43.20
3942;DHT22;1985;48.592;8.850;2023-05-29T15:41:51;25.00;43.10
3942;DHT22;1985;48.592;8.850;2023-05-29T15:44:17;25.10;43.00
3942;DHT22;1985;48.592;8.850;2023-05-29T15:46:42;25.10;44.30
3942;DHT22;1985;48.592;8.850;2023-05-29T15:49:08;24.90;45.70
3942;DHT22;1985;48.592;8.850;2023-05-29T15:51:34;24.80;45.00
3942;DHT22;1985;48.592;8.850;2023-05-29T15:54:06;24.80;45.60
3942;DHT22;1985;48.592;8.850;2023-05-29T15:56:32;24.80;45.90
3942;DHT22;1985;48.592;8.850;2023-05-29T15:58:57;24.70;46.50
3942;DHT22;1985;48.592;8.850;2023-05-29T16:01:23;24.70;45.30
3942;DHT22;1985;48.592;8.850;2023-05-29T16:03:48;24.70;44.60
3942;DHT22;1985;48.592;8.850;2023-05-29T16:06:14;24.80;44.10
3942;DHT22;1985;48.592;8.850;2023-05-29T16:08:41;24.80;43.80
3942;DHT22;1985;48.592;8.850;2023-05-29T16:11:07;24.80;43.60
3942;DHT22;1985;48.592;8.850;2023-05-29T16:13:33;24.90;43.70
3942;DHT22;1985;48.592;8.850;2023-05-29T16:16:00;24.90;43.40
3942;DHT22;1985;48.592;8.850;2023-05-29T16:18:27;24.90;44.50
3942;DHT22;1985;48.592;8.850;2023-05-29T16:20:53;24.80;45.90
3942;DHT22;1985;48.592;8.850;2023-05-29T16:23:19;24.80;46.40
3942;DHT22;1985;48.592;8.850;2023-05-29T16:25:45;24.60;46.80